createdAt,value
2018-04-13T00:00:21.774Z,42.30
2018-04-13T00:01:22.145Z,43.30
2018-04-13T00:02:21.891Z,40.60
2018-04-13T00:03:21.664Z,39.50
2018-04-13T00:04:22.329Z,37.50
2018-04-13T00:05:22.223Z,37.60
2018-04-13T00:06:21.603Z,31.00
2018-04-13T00:07:21.776Z,33.70
2018-04-13T00:08:22.277Z,27.40
2018-04-13T00:09:22.015Z,29.60
2018-04-13T00:10:21.718Z,28.70
2018-04-13T00:11:21.668Z,23.40
2018-04-13T00:12:22.399Z,33.20
2018-04-13T00:13:22.297Z,21.60
2018-04-13T00:14:22.140Z,19.10
2018-04-13T00:15:21.546Z,20.10
2018-04-13T00:16:44.083Z,17.80
2018-04-13T00:17:44.993Z,16.90
2018-04-13T00:18:44.403Z,15.20
2018-04-13T00:19:43.982Z,17.00
2018-04-13T00:20:44.428Z,15.70
2018-04-13T00:21:44.712Z,14.00
2018-04-13T00:22:44.125Z,12.70
2018-04-13T00:23:44.591Z,15.10
2018-04-13T00:24:44.475Z,14.00
2018-04-13T00:25:44.268Z,13.20
2018-04-13T00:26:43.835Z,13.00
2018-04-13T00:27:44.588Z,14.40
2018-04-13T00:28:44.392Z,13.40
2018-04-13T00:29:45.062Z,13.60
2018-04-13T00:30:44.700Z,14.00
2018-04-13T00:31:44.621Z,17.80
2018-04-13T00:32:44.094Z,16.30
2018-04-13T00:34:05.325Z,12.90
2018-04-13T00:35:07.430Z,13.90
2018-04-13T00:36:06.106Z,15.90
2018-04-13T00:37:05.594Z,12.10
2018-04-13T00:38:05.980Z,14.70
2018-04-13T00:39:05.442Z,11.90
2018-04-13T00:40:26.214Z,13.60
2018-04-13T00:41:26.735Z,14.70
2018-04-13T00:42:27.198Z,11.80
2018-04-13T00:43:26.633Z,13.90
2018-04-13T00:44:27.418Z,12.50
2018-04-13T00:45:26.841Z,15.10
2018-04-13T00:46:27.634Z,12.60
2018-04-13T00:47:27.092Z,15.60
2018-04-13T00:48:26.826Z,12.20
2018-04-13T00:49:27.597Z,12.80
2018-04-13T00:50:27.373Z,15.40
2018-04-13T00:51:28.019Z,14.00
2018-04-13T00:52:27.825Z,17.00
2018-04-13T00:53:27.628Z,16.10
2018-04-13T00:54:27.179Z,21.00
2018-04-13T00:55:26.643Z,18.60
2018-04-13T00:56:27.393Z,19.60
2018-04-13T00:57:26.934Z,20.60
2018-04-13T00:58:27.343Z,18.60
2018-04-13T00:59:26.846Z,22.50
2018-04-13T01:00:26.964Z,21.60
2018-04-13T01:01:26.464Z,22.70
2018-04-13T01:02:26.985Z,22.30
2018-04-13T01:03:26.939Z,21.10
2018-04-13T01:04:53.034Z,21.20
2018-04-13T01:05:49.907Z,23.20
2018-04-13T01:06:49.278Z,20.90
2018-04-13T01:07:49.645Z,19.20
2018-04-13T01:08:50.386Z,25.20
2018-04-13T01:09:49.782Z,23.80
2018-04-13T01:10:50.163Z,25.80
2018-04-13T01:11:49.871Z,23.30
2018-04-13T01:12:49.296Z,24.80
2018-04-13T01:13:50.067Z,25.30
2018-04-13T01:14:49.393Z,21.80
2018-04-13T01:15:50.739Z,25.60
2018-04-13T01:16:50.490Z,24.30
2018-04-13T01:17:50.357Z,24.90
2018-04-13T01:19:11.442Z,26.70
2018-04-13T01:20:11.967Z,23.80
2018-04-13T01:21:12.686Z,23.40
2018-04-13T01:22:12.416Z,27.40
2018-04-13T01:23:11.839Z,29.80
2018-04-13T01:24:12.345Z,31.90
2018-04-13T01:25:32.572Z,37.00
2018-04-13T01:26:33.094Z,31.10
2018-04-13T01:27:33.694Z,32.40
2018-04-13T01:28:32.647Z,30.70
2018-04-13T01:29:54.301Z,30.90
2018-04-13T01:30:54.720Z,27.60
2018-04-13T01:31:55.212Z,30.30
2018-04-13T01:32:55.016Z,32.10
2018-04-13T01:33:54.880Z,32.30
2018-04-13T01:34:55.898Z,31.60
2018-04-13T01:35:54.667Z,27.80
2018-04-13T01:37:16.063Z,26.90
2018-04-13T01:38:16.929Z,25.10
2018-04-13T01:39:16.736Z,28.80
2018-04-13T01:40:16.376Z,24.50
2018-04-13T01:41:17.224Z,23.40
2018-04-13T01:42:17.195Z,22.90
2018-04-13T02:26:44.540Z,17.70
2018-04-13T02:28:06.779Z,18.60
2018-04-13T02:29:07.618Z,17.10
2018-04-13T02:30:07.296Z,19.00
2018-04-13T02:31:07.147Z,15.30
2018-04-13T02:32:06.629Z,18.30
2018-04-13T02:33:07.106Z,16.70
2018-04-13T02:34:07.837Z,17.90
2018-04-13T02:35:07.676Z,21.90
2018-04-13T02:36:07.235Z,17.60
2018-04-13T02:37:06.713Z,17.80
2018-04-13T02:38:07.423Z,18.50
2018-04-13T02:39:07.050Z,18.20
2018-04-13T02:40:06.900Z,16.00
2018-04-13T02:41:07.279Z,18.30
2018-04-13T02:42:06.788Z,19.90
2018-04-13T02:43:07.136Z,21.10
2018-04-13T02:44:06.890Z,18.40
2018-04-13T02:45:07.721Z,17.70
2018-04-13T02:46:07.407Z,21.80
2018-04-13T02:47:07.165Z,18.30
2018-04-13T02:48:27.707Z,19.40
2018-04-13T02:49:28.310Z,20.30
2018-04-13T02:50:28.104Z,20.00
2018-04-13T02:51:27.896Z,22.90
2018-04-13T02:52:28.619Z,20.20
2018-04-13T02:53:28.273Z,21.20
2018-04-13T02:54:48.444Z,20.60
2018-04-13T02:56:10.461Z,20.20
2018-04-13T02:57:32.343Z,18.40
2018-04-13T02:58:33.111Z,21.50
2018-04-13T03:00:14.100Z,18.50
2018-04-13T03:01:55.685Z,21.30
2018-04-13T03:02:56.282Z,19.30
2018-04-13T03:04:16.084Z,22.00
2018-04-13T03:05:16.614Z,25.20
2018-04-13T03:06:16.848Z,21.70
2018-04-13T03:07:37.849Z,22.60
2018-04-13T03:08:38.728Z,20.60
2018-04-13T03:09:59.649Z,18.50
2018-04-13T03:11:00.068Z,20.90
2018-04-13T03:11:59.591Z,22.70
2018-04-13T03:13:00.370Z,17.60
2018-04-13T03:14:00.150Z,22.20
2018-04-13T03:14:59.810Z,20.80
2018-04-13T03:16:00.704Z,18.80
2018-04-13T03:17:00.468Z,19.30
2018-04-13T03:18:00.362Z,16.50
2018-04-13T03:18:59.760Z,18.90
2018-04-13T03:20:00.286Z,23.70
2018-04-13T03:20:59.589Z,23.90
2018-04-13T03:22:00.322Z,22.50
2018-04-13T03:22:59.694Z,21.60
2018-04-13T03:24:00.739Z,22.60
2018-04-13T03:25:00.388Z,22.40
2018-04-13T03:25:59.987Z,23.80
2018-04-13T03:26:59.598Z,28.30
2018-04-13T03:28:00.421Z,23.30
2018-04-13T03:29:00.066Z,22.60
2018-04-13T03:29:59.848Z,25.50
2018-04-13T03:31:00.345Z,25.10
2018-04-13T03:31:59.875Z,27.40
2018-04-13T03:33:20.643Z,25.60
2018-04-13T03:34:42.188Z,24.00
2018-04-13T03:35:42.532Z,21.10
2018-04-13T03:36:43.669Z,22.10
2018-04-13T03:37:42.286Z,24.70
2018-04-13T03:38:42.681Z,22.80
2018-04-13T03:40:24.417Z,21.80
2018-04-13T03:41:24.789Z,25.70
2018-04-13T03:42:24.834Z,20.60
2018-04-13T03:43:24.686Z,20.50
2018-04-13T03:44:25.449Z,122.10
2018-04-13T03:45:46.519Z,66.00
2018-04-13T03:46:47.064Z,38.80
2018-04-13T03:47:46.892Z,27.00
2018-04-13T03:48:46.326Z,27.70
2018-04-13T03:49:47.151Z,28.90
2018-04-13T03:50:46.589Z,29.60
2018-04-13T03:51:48.034Z,25.00
2018-04-13T03:52:46.531Z,21.30
2018-04-13T03:53:46.990Z,21.10
2018-04-13T03:54:46.365Z,20.10
2018-04-13T03:55:47.096Z,31.50
2018-04-13T03:56:46.468Z,42.40
2018-04-13T03:57:46.895Z,40.70
2018-04-13T03:58:46.310Z,34.10
2018-04-13T03:59:46.916Z,37.60
2018-04-13T04:01:07.739Z,39.60
2018-04-13T04:02:29.390Z,36.00
2018-04-13T04:03:30.307Z,32.50
2018-04-13T04:04:30.357Z,37.60
2018-04-13T04:05:30.398Z,49.60
2018-04-13T04:06:30.004Z,45.70
2018-04-13T04:07:29.609Z,61.40
2018-04-13T04:08:30.481Z,54.30
2018-04-13T04:09:29.606Z,57.80
2018-04-13T04:10:50.225Z,51.20
2018-04-13T04:11:51.048Z,49.30
2018-04-13T04:12:50.833Z,60.10
2018-04-13T04:13:52.156Z,53.80
2018-04-13T04:14:50.896Z,45.50
2018-04-13T04:15:50.462Z,42.10
2018-04-13T04:16:51.287Z,46.50
2018-04-13T04:17:51.086Z,38.50
2018-04-13T04:18:50.884Z,36.70
2018-04-13T04:19:50.564Z,35.00
2018-04-13T04:20:51.331Z,29.50
2018-04-13T04:21:51.237Z,26.90
2018-04-13T04:22:50.932Z,25.80
2018-04-13T04:23:50.674Z,30.20
2018-04-13T04:24:51.074Z,32.70
2018-04-13T04:25:50.845Z,32.40
2018-04-13T04:26:50.679Z,29.00
2018-04-13T04:27:51.590Z,31.90
2018-04-13T04:28:51.353Z,36.80
2018-04-13T04:29:51.037Z,42.10
2018-04-13T04:30:50.533Z,36.10
2018-04-13T04:31:51.229Z,39.00
2018-04-13T04:32:50.850Z,47.40
2018-04-13T04:34:32.326Z,53.60
2018-04-13T04:35:32.975Z,53.30
2018-04-13T04:36:32.599Z,60.70
2018-04-13T04:37:33.081Z,50.20
2018-04-13T04:38:33.044Z,48.80
2018-04-13T04:39:54.406Z,56.40
2018-04-13T04:40:55.209Z,63.90
2018-04-13T04:41:55.242Z,62.10
2018-04-13T04:42:54.948Z,63.00
2018-04-13T04:44:05.941Z,63.80
2018-04-13T04:44:54.469Z,66.50
2018-04-13T04:46:02.407Z,67.90
2018-04-13T04:47:01.656Z,63.20
2018-04-13T04:48:21.325Z,60.70
2018-04-13T04:49:22.237Z,67.10
2018-04-13T04:50:46.252Z,67.10
2018-04-13T04:51:44.700Z,65.90
2018-04-13T04:52:46.311Z,74.10
2018-04-13T04:53:44.297Z,71.00
2018-04-13T04:54:43.997Z,83.00
2018-04-13T04:55:48.354Z,81.50
2018-04-13T04:57:04.674Z,83.60
2018-04-13T04:58:05.129Z,84.80
2018-04-13T04:59:05.981Z,91.00
2018-04-13T05:00:31.544Z,88.50
2018-04-13T05:01:27.567Z,91.90
2018-04-13T05:02:27.751Z,95.40
2018-04-13T05:03:27.565Z,91.50
2018-04-13T05:04:26.971Z,100.80
2018-04-13T05:05:27.728Z,104.10
2018-04-13T05:06:28.285Z,115.20
2018-04-13T05:07:26.974Z,103.60
2018-04-13T05:08:26.917Z,101.10
2018-04-13T05:09:26.680Z,103.20
2018-04-13T05:10:29.391Z,109.80
2018-04-13T05:11:27.458Z,111.70
2018-04-13T05:12:47.748Z,117.60
2018-04-13T05:13:48.330Z,111.90
2018-04-13T05:15:00.700Z,121.70
2018-04-13T05:15:55.631Z,123.00
2018-04-13T05:16:48.953Z,127.60
2018-04-13T05:17:49.040Z,141.00
2018-04-13T05:18:50.093Z,146.50
2018-04-13T05:19:54.333Z,140.40
2018-04-13T05:20:51.384Z,136.40
2018-04-13T05:21:58.947Z,135.40
2018-04-13T05:22:48.047Z,135.90
2018-04-13T05:23:48.593Z,138.10
2018-04-13T05:25:11.960Z,134.60
2018-04-13T05:26:09.935Z,139.90
2018-04-13T05:27:10.327Z,124.10
2018-04-13T05:28:59.671Z,122.00
2018-04-13T05:29:58.320Z,112.60
2018-04-13T05:30:59.802Z,127.00
2018-04-13T05:31:58.353Z,126.50
2018-04-13T05:33:00.709Z,119.60
2018-04-13T05:34:02.146Z,127.10
2018-04-13T05:34:59.528Z,129.50
2018-04-13T05:35:58.421Z,138.60
2018-04-13T05:37:20.283Z,128.40
2018-04-13T05:38:20.166Z,120.30
2018-04-13T05:39:19.992Z,128.70
2018-04-13T05:40:20.988Z,110.60
2018-04-13T05:41:20.327Z,124.80
2018-04-13T05:42:20.017Z,137.80
2018-04-13T05:43:20.918Z,131.90
2018-04-13T05:44:20.842Z,135.60
2018-04-13T05:45:21.726Z,141.70
2018-04-13T05:46:20.328Z,137.80
2018-04-13T05:47:21.181Z,129.00
2018-04-13T05:48:20.193Z,125.70
2018-04-13T05:49:19.818Z,123.20
2018-04-13T05:50:20.789Z,121.50
2018-04-13T05:51:20.709Z,118.10
2018-04-13T05:52:20.303Z,116.40
2018-04-13T05:53:20.042Z,119.40
2018-04-13T05:54:41.636Z,111.40
2018-04-13T05:55:43.048Z,105.80
2018-04-13T05:56:42.591Z,112.70
2018-04-13T05:57:42.123Z,107.60
2018-04-13T05:58:41.841Z,108.60
2018-04-13T05:59:42.345Z,111.00
2018-04-13T06:00:42.205Z,109.50
2018-04-13T06:01:42.180Z,107.50
2018-04-13T06:02:42.231Z,111.90
2018-04-13T06:03:41.920Z,108.00
2018-04-13T06:04:42.879Z,109.40
2018-04-13T06:05:43.907Z,110.10
2018-04-13T06:06:43.629Z,106.20
2018-04-13T06:07:43.191Z,106.80
2018-04-13T06:08:42.727Z,106.50
2018-04-13T06:09:43.431Z,105.40
2018-04-13T06:10:42.825Z,105.20
2018-04-13T06:12:03.852Z,109.50
2018-04-13T06:13:04.437Z,102.40
2018-04-13T06:14:24.965Z,104.10
2018-04-13T06:15:25.635Z,104.60
2018-04-13T06:16:25.509Z,102.00
2018-04-13T06:17:25.263Z,99.60
2018-04-13T06:18:24.918Z,106.10
2018-04-13T06:19:25.708Z,99.90
2018-04-13T06:20:47.368Z,96.90
2018-04-13T06:21:47.282Z,92.40
2018-04-13T06:22:48.007Z,101.00
2018-04-13T06:23:48.023Z,97.30
2018-04-13T06:24:47.725Z,101.40
2018-04-13T06:25:47.461Z,94.70
2018-04-13T06:26:46.978Z,98.20
2018-04-13T06:27:47.853Z,103.30
2018-04-13T06:28:47.911Z,103.80
2018-04-13T06:29:47.887Z,102.70
2018-04-13T06:30:47.634Z,110.40
2018-04-13T06:31:48.164Z,109.50
2018-04-13T06:32:46.903Z,103.90
2018-04-13T06:33:48.007Z,95.90
2018-04-13T06:34:47.601Z,100.80
2018-04-13T06:35:47.658Z,96.90
2018-04-13T06:36:47.553Z,106.50
2018-04-13T06:37:47.334Z,102.70
2018-04-13T06:38:47.395Z,102.70
2018-04-13T06:39:46.992Z,105.40
2018-04-13T06:40:48.032Z,101.80
2018-04-13T06:41:48.061Z,100.80
2018-04-13T06:42:48.015Z,106.10
2018-04-13T06:44:09.083Z,108.30
2018-04-13T06:45:30.813Z,101.50
2018-04-13T06:46:31.826Z,99.00
2018-04-13T06:47:32.124Z,115.70
2018-04-13T06:48:31.567Z,104.40
2018-04-13T06:49:31.209Z,106.10
2018-04-13T06:50:32.037Z,103.00
2018-04-13T06:51:31.939Z,103.90
2018-04-13T06:52:31.389Z,102.80
2018-04-13T06:53:31.439Z,103.00
2018-04-13T06:54:52.876Z,101.00
2018-04-13T06:55:53.695Z,97.10
2018-04-13T06:56:53.705Z,95.00
2018-04-13T06:57:53.213Z,99.40
2018-04-13T06:58:52.883Z,98.70
2018-04-13T06:59:53.896Z,90.60
2018-04-13T07:01:14.663Z,93.30
2018-04-13T07:02:15.324Z,85.80
2018-04-13T07:03:14.926Z,86.70
2018-04-13T07:04:15.790Z,93.70
2018-04-13T07:05:36.603Z,93.00
2018-04-13T07:06:37.472Z,85.20
2018-04-13T07:08:40.100Z,142.30
2018-04-13T07:09:41.805Z,111.50
2018-04-13T07:10:40.552Z,142.20
2018-04-13T07:11:40.607Z,231.60
2018-04-13T07:13:01.983Z,190.70
2018-04-13T07:14:01.799Z,127.90
2018-04-13T07:15:02.871Z,104.00
2018-04-13T07:16:02.562Z,97.60
2018-04-13T07:17:02.440Z,96.90
2018-04-13T07:18:02.585Z,110.40
2018-04-13T07:19:02.027Z,87.80
2018-04-13T07:20:01.648Z,81.70
2018-04-13T07:21:02.732Z,84.70
2018-04-13T07:22:02.751Z,88.30
2018-04-13T07:23:02.347Z,84.80
2018-04-13T07:24:02.091Z,77.60
2018-04-13T07:25:04.906Z,85.20
2018-04-13T07:26:23.817Z,85.60
2018-04-13T07:28:06.665Z,78.60
2018-04-13T07:29:07.768Z,77.90
2018-04-13T07:30:07.604Z,78.60
2018-04-13T07:32:30.603Z,72.30
2018-04-13T07:34:34.778Z,77.50
2018-04-13T07:35:35.423Z,83.40
2018-04-13T07:36:57.886Z,81.20
2018-04-13T07:37:59.306Z,80.50
2018-04-13T07:38:58.436Z,88.40
2018-04-13T07:39:58.086Z,79.70
2018-04-13T07:40:59.262Z,81.30
2018-04-13T07:41:58.404Z,91.80
2018-04-13T07:42:58.354Z,80.20
2018-04-13T07:43:58.117Z,83.80
2018-04-13T07:45:42.090Z,77.30
2018-04-13T07:47:03.009Z,78.30
2018-04-13T07:48:03.436Z,86.20
2018-04-13T07:49:03.807Z,86.80
2018-04-13T07:50:02.782Z,80.80
2018-04-13T07:51:04.051Z,82.30
2018-04-13T07:52:03.259Z,87.70
2018-04-13T07:53:02.982Z,81.60
2018-04-13T07:54:02.653Z,82.40
2018-04-13T07:55:03.378Z,79.30
2018-04-13T07:56:03.051Z,90.20
2018-04-13T07:57:03.927Z,84.20
2018-04-13T07:58:03.756Z,81.10
2018-04-13T07:59:02.705Z,88.70
2018-04-13T08:00:03.773Z,94.90
2018-04-13T08:01:03.364Z,86.70
2018-04-13T08:02:03.487Z,84.50
2018-04-13T08:03:03.414Z,82.10
2018-04-13T08:04:03.206Z,84.80
2018-04-13T08:05:03.211Z,80.70
2018-04-13T08:06:02.854Z,78.30
2018-04-13T08:07:23.998Z,77.00
2018-04-13T08:08:24.734Z,78.70
2018-04-13T08:09:24.341Z,80.60
2018-04-13T08:10:24.672Z,83.50
2018-04-13T08:11:24.329Z,79.30
2018-04-13T08:12:44.682Z,83.50
2018-04-13T08:13:45.414Z,88.10
2018-04-13T08:14:45.577Z,79.80
2018-04-13T08:15:45.370Z,79.10
2018-04-13T08:17:05.896Z,78.90
2018-04-13T08:18:05.671Z,77.60
2018-04-13T08:19:06.170Z,74.60
2018-04-13T08:20:05.666Z,76.40
2018-04-13T08:21:06.232Z,83.00
2018-04-13T08:22:06.251Z,77.80
2018-04-13T08:23:06.384Z,86.80
2018-04-13T08:24:06.407Z,78.70
2018-04-13T08:25:06.097Z,79.30
2018-04-13T08:26:26.914Z,78.20
2018-04-13T08:27:27.617Z,81.20
2018-04-13T08:28:27.635Z,85.70
2018-04-13T08:29:48.596Z,79.30
2018-04-13T08:30:49.686Z,77.90
2018-04-13T08:31:49.798Z,74.90
2018-04-13T08:32:49.876Z,75.00
2018-04-13T08:33:48.983Z,75.30
2018-04-13T08:35:31.698Z,74.30
2018-04-13T08:36:32.817Z,77.30
2018-04-13T08:37:32.857Z,79.60
2018-04-13T08:39:34.583Z,75.20
2018-04-13T08:40:57.209Z,73.20
2018-04-13T08:41:57.778Z,76.60
2018-04-13T08:42:57.844Z,72.70
2018-04-13T08:43:57.821Z,73.20
2018-04-13T08:44:57.592Z,75.00
2018-04-13T08:46:21.732Z,71.30
2018-04-13T08:48:04.161Z,72.80
2018-04-13T08:49:04.963Z,73.50
2018-04-13T08:50:05.156Z,72.40
2018-04-13T08:51:05.895Z,73.90
2018-04-13T08:52:04.750Z,68.90
2018-04-13T08:53:26.489Z,74.40
2018-04-13T08:54:27.607Z,73.80
2018-04-13T08:56:33.097Z,71.20
2018-04-13T08:57:35.615Z,75.90
2018-04-13T08:58:33.276Z,75.00
2018-04-13T08:59:55.577Z,71.70
2018-04-13T09:01:18.480Z,71.40
2018-04-13T09:02:17.689Z,73.40
2018-04-13T09:03:19.601Z,71.50
2018-04-13T09:05:03.360Z,75.80
2018-04-13T09:06:01.416Z,76.80
2018-04-13T09:06:52.508Z,71.30
2018-04-13T09:08:01.781Z,68.60
2018-04-13T09:09:55.067Z,75.30
2018-04-13T09:10:51.024Z,66.90
2018-04-13T09:11:51.681Z,69.60
2018-04-13T09:13:12.112Z,70.00
2018-04-13T09:14:11.403Z,72.60
2018-04-13T09:15:31.651Z,73.30
2018-04-13T09:16:32.743Z,72.80
2018-04-13T09:17:32.694Z,68.80
2018-04-13T09:18:32.612Z,68.60
2018-04-13T09:19:32.249Z,66.80
2018-04-13T09:20:55.600Z,73.80
2018-04-13T09:21:56.825Z,72.10
2018-04-13T09:22:56.572Z,70.40
2018-04-13T09:23:56.440Z,67.00
2018-04-13T09:24:56.455Z,71.10
2018-04-13T09:25:56.165Z,65.80
2018-04-13T09:26:55.877Z,75.90
2018-04-13T09:27:56.197Z,69.30
2018-04-13T09:28:55.845Z,71.70
2018-04-13T09:29:56.590Z,72.70
2018-04-13T09:30:56.306Z,73.60
2018-04-13T09:31:56.459Z,69.40
2018-04-13T09:33:18.441Z,72.50
2018-04-13T09:34:41.049Z,66.50
2018-04-13T09:35:40.827Z,65.40
2018-04-13T09:37:02.879Z,68.60
2018-04-13T09:38:03.737Z,68.50
2018-04-13T09:39:03.817Z,68.60
2018-04-13T09:40:04.039Z,67.80
2018-04-13T09:41:02.769Z,67.50
2018-04-13T09:42:03.956Z,63.60
2018-04-13T09:43:03.956Z,63.80
2018-04-13T09:44:04.120Z,62.20
2018-04-13T09:45:02.847Z,64.90
2018-04-13T09:46:25.025Z,65.40
2018-04-13T09:47:46.818Z,65.00
2018-04-13T09:48:47.813Z,67.50
2018-04-13T09:49:47.452Z,63.20
2018-04-13T09:50:47.057Z,64.00
2018-04-13T09:51:47.113Z,65.50
2018-04-13T09:53:28.460Z,61.60
2018-04-13T09:54:29.582Z,65.40
2018-04-13T09:55:29.248Z,65.60
2018-04-13T09:56:29.485Z,61.60
2018-04-13T09:58:31.962Z,64.10
2018-04-13T09:59:33.093Z,63.70
2018-04-13T10:00:54.521Z,69.20
2018-04-13T10:01:55.567Z,62.40
2018-04-13T10:02:55.690Z,67.10
2018-04-13T10:03:55.727Z,65.20
2018-04-13T10:04:55.431Z,59.50
2018-04-13T10:05:55.502Z,66.20
2018-04-13T10:06:55.470Z,62.30
2018-04-13T10:07:55.243Z,64.40
2018-04-13T10:08:55.269Z,59.40
2018-04-13T10:10:16.473Z,62.70
2018-04-13T10:11:16.408Z,58.80
2018-04-13T10:12:38.435Z,61.60
2018-04-13T10:13:39.331Z,58.70
2018-04-13T10:14:38.317Z,56.60
2018-04-13T10:15:38.077Z,58.40
2018-04-13T10:16:38.309Z,60.10
2018-04-13T10:17:38.018Z,63.60
2018-04-13T10:18:37.574Z,55.80
2018-04-13T10:19:38.149Z,66.90
2018-04-13T10:20:39.109Z,60.70
2018-04-13T10:21:38.227Z,64.80
2018-04-13T10:22:38.384Z,61.80
2018-04-13T10:23:38.340Z,58.20
2018-04-13T10:24:38.337Z,60.60
2018-04-13T10:25:38.350Z,59.20
2018-04-13T10:26:38.070Z,60.40
2018-04-13T10:27:38.364Z,60.10
2018-04-13T10:28:58.853Z,60.50
2018-04-13T10:30:21.286Z,58.30
2018-04-13T10:31:21.921Z,56.00
2018-04-13T10:32:42.956Z,56.20
2018-04-13T10:33:43.461Z,56.40
2018-04-13T10:34:43.431Z,67.00
2018-04-13T10:35:43.197Z,56.20
2018-04-13T10:36:42.817Z,58.60
2018-04-13T10:37:43.697Z,51.10
2018-04-13T10:38:43.344Z,61.00
2018-04-13T10:39:43.251Z,53.20
2018-04-13T10:41:04.971Z,53.80
2018-04-13T10:42:06.318Z,62.00
2018-04-13T10:43:05.017Z,56.40
2018-04-13T10:44:05.792Z,54.80
2018-04-13T10:45:05.772Z,54.20
2018-04-13T10:46:47.717Z,54.50
2018-04-13T10:47:47.446Z,53.00
2018-04-13T10:48:47.980Z,51.70
2018-04-13T10:49:47.643Z,56.40
2018-04-13T10:50:47.554Z,51.10
2018-04-13T10:52:09.930Z,53.30
2018-04-13T10:53:11.000Z,53.70
2018-04-13T10:54:10.166Z,52.60
2018-04-13T10:55:10.013Z,55.80
2018-04-13T10:56:10.163Z,56.40
2018-04-13T10:57:10.376Z,55.90
2018-04-13T10:58:10.170Z,59.50
2018-04-13T10:59:10.305Z,51.80
2018-04-13T11:00:10.460Z,53.60
2018-04-13T11:01:10.576Z,56.90
2018-04-13T11:02:10.424Z,51.80
2018-04-13T11:03:10.341Z,54.20
2018-04-13T11:04:10.480Z,52.70
2018-04-13T11:05:10.445Z,51.80
2018-04-13T11:06:10.302Z,60.80
2018-04-13T11:07:32.310Z,51.60
2018-04-13T11:08:32.483Z,56.30
2018-04-13T11:09:54.052Z,58.00
2018-04-13T11:10:54.578Z,56.70
2018-04-13T11:11:54.543Z,52.60
2018-04-13T11:12:54.592Z,53.10
2018-04-13T11:13:54.255Z,52.40
2018-04-13T11:14:53.964Z,56.70
2018-04-13T11:15:53.812Z,58.60
2018-04-13T11:16:54.568Z,55.80
2018-04-13T11:17:54.515Z,58.10
2018-04-13T11:18:54.308Z,56.40
2018-04-13T11:19:54.187Z,55.90
2018-04-13T11:20:54.842Z,55.50
2018-04-13T11:21:54.857Z,60.40
2018-04-13T11:23:15.775Z,57.40
2018-04-13T11:24:16.777Z,57.40
2018-04-13T11:25:16.423Z,59.70
2018-04-13T11:26:16.390Z,61.90
2018-04-13T11:27:37.803Z,53.70
2018-04-13T11:28:38.330Z,57.20
2018-04-13T11:29:38.221Z,54.80
2018-04-13T11:30:37.947Z,52.10
2018-04-13T11:31:38.913Z,55.80
2018-04-13T11:32:39.146Z,60.00
2018-04-13T11:33:38.109Z,57.50
2018-04-13T11:34:39.163Z,52.40
2018-04-13T11:35:40.299Z,55.80
2018-04-13T11:37:00.312Z,56.50
2018-04-13T11:38:22.219Z,56.00
2018-04-13T11:39:22.399Z,53.30
2018-04-13T11:40:22.685Z,57.60
2018-04-13T11:41:44.355Z,55.40
2018-04-13T11:42:45.339Z,52.30
2018-04-13T11:43:45.483Z,55.40
2018-04-13T11:44:45.031Z,53.50
2018-04-13T11:45:44.829Z,55.20
2018-04-13T11:46:45.073Z,55.50
2018-04-13T11:47:45.076Z,56.40
2018-04-13T11:48:44.791Z,53.40
2018-04-13T11:49:44.800Z,52.90
2018-04-13T11:51:06.429Z,51.30
2018-04-13T11:52:07.631Z,60.10
2018-04-13T11:53:06.418Z,56.00
2018-04-13T11:54:07.311Z,58.10
2018-04-13T11:55:07.494Z,55.70
2018-04-13T11:56:07.281Z,58.60
2018-04-13T11:57:07.368Z,59.90
2018-04-13T11:58:07.507Z,63.00
2018-04-13T11:59:06.510Z,61.30
2018-04-13T12:00:08.839Z,58.20
2018-04-13T12:01:07.163Z,60.60
2018-04-13T12:02:06.856Z,61.30
2018-04-13T12:03:06.642Z,68.50
2018-04-13T12:04:06.820Z,73.70
2018-04-13T12:05:06.671Z,76.20
2018-04-13T12:06:06.519Z,74.30
2018-04-13T12:07:07.691Z,60.60
2018-04-13T12:08:07.392Z,56.30
2018-04-13T12:09:07.301Z,55.80
2018-04-13T12:10:07.103Z,56.80
2018-04-13T12:11:06.977Z,58.90
2018-04-13T12:12:06.832Z,54.80
2018-04-13T12:13:07.138Z,52.10
2018-04-13T12:14:27.781Z,53.20
2018-04-13T12:15:28.994Z,52.70
2018-04-13T12:16:28.762Z,54.40
2018-04-13T12:17:28.566Z,56.90
2018-04-13T12:18:28.788Z,56.10
2018-04-13T12:19:50.331Z,57.20
2018-04-13T12:20:50.282Z,58.80
2018-04-13T12:21:50.373Z,53.20
2018-04-13T12:22:50.096Z,54.00
2018-04-13T12:23:51.226Z,52.20
2018-04-13T12:24:50.303Z,58.60
2018-04-13T12:25:50.541Z,65.20
2018-04-13T12:26:50.681Z,55.90
2018-04-13T12:27:50.687Z,67.30
2018-04-13T12:28:50.573Z,64.90
2018-04-13T12:29:50.855Z,72.00
2018-04-13T12:30:50.740Z,74.90
2018-04-13T12:31:50.600Z,71.00
2018-04-13T12:32:50.608Z,65.80
2018-04-13T12:33:51.045Z,71.10
2018-04-13T12:35:11.916Z,71.20
2018-04-13T12:36:13.093Z,75.90
2018-04-13T12:37:12.329Z,73.50
2018-04-13T12:38:12.307Z,74.20
2018-04-13T12:39:12.523Z,72.60
2018-04-13T12:40:12.200Z,66.70
2018-04-13T12:41:12.252Z,65.40
2018-04-13T12:42:12.174Z,77.10
2018-04-13T12:43:11.991Z,77.40
2018-04-13T12:44:33.567Z,74.30
2018-04-13T12:45:34.245Z,71.60
2018-04-13T12:46:34.515Z,77.30
2018-04-13T12:47:34.500Z,76.80
2018-04-13T12:48:34.342Z,73.10
2018-04-13T12:49:34.514Z,79.20
2018-04-13T12:50:34.582Z,76.70
2018-04-13T12:51:34.410Z,77.10
2018-04-13T12:52:34.034Z,79.00
2018-04-13T12:53:33.813Z,86.00
2018-04-13T12:54:34.334Z,81.20
2018-04-13T12:55:34.984Z,84.30
2018-04-13T12:56:33.771Z,90.40
2018-04-13T12:57:35.025Z,91.70
2018-04-13T12:58:33.743Z,93.30
2018-04-13T12:59:34.365Z,83.20
2018-04-13T13:00:34.436Z,91.80
2018-04-13T13:01:34.525Z,96.70
2018-04-13T13:02:34.316Z,94.80
2018-04-13T13:03:34.595Z,89.20
2018-04-13T13:04:56.680Z,92.20
2018-04-13T13:05:56.859Z,91.70
2018-04-13T13:06:56.978Z,96.50
2018-04-13T13:07:56.489Z,92.00
2018-04-13T13:08:58.313Z,95.10
2018-04-13T13:09:57.647Z,98.00
2018-04-13T13:11:06.536Z,97.80
2018-04-13T13:11:57.246Z,99.90
2018-04-13T13:12:59.156Z,103.20
2018-04-13T13:13:57.393Z,88.50
2018-04-13T13:14:57.497Z,84.00
2018-04-13T13:15:57.198Z,80.00
2018-04-13T13:17:41.317Z,66.20
2018-04-13T13:18:41.986Z,74.10
2018-04-13T13:19:42.113Z,78.80
2018-04-13T13:21:04.283Z,78.20
2018-04-13T13:22:06.669Z,74.60
2018-04-13T13:23:04.790Z,85.60
2018-04-13T13:24:04.508Z,78.20
2018-04-13T13:25:05.226Z,84.50
2018-04-13T13:26:05.034Z,87.70
2018-04-13T13:27:26.566Z,80.70
2018-04-13T13:28:27.746Z,83.20
2018-04-13T13:29:27.999Z,87.60
2018-04-13T13:30:49.008Z,85.40
2018-04-13T13:31:49.249Z,81.70
2018-04-13T13:32:49.887Z,77.10
2018-04-13T13:33:49.484Z,76.70
2018-04-13T13:34:49.586Z,82.80
2018-04-13T13:35:49.858Z,89.60
2018-04-13T13:37:54.666Z,99.30
2018-04-13T13:38:55.705Z,90.70
2018-04-13T13:39:54.710Z,104.60
2018-04-13T13:40:54.418Z,110.10
2018-04-13T13:41:54.577Z,124.60
2018-04-13T13:42:54.359Z,128.00
2018-04-13T13:43:55.141Z,128.70
2018-04-13T13:44:55.842Z,136.30
2018-04-13T13:46:17.152Z,137.10
2018-04-13T13:47:18.080Z,129.40
2018-04-13T13:48:18.339Z,131.80
2018-04-13T13:49:18.541Z,100.80
2018-04-13T13:50:18.096Z,110.80
2018-04-13T13:51:17.919Z,108.80
2018-04-13T13:52:39.835Z,108.80
2018-04-13T13:53:39.615Z,109.80
2018-04-13T13:54:39.908Z,106.70
2018-04-13T13:55:40.540Z,106.50
2018-04-13T13:56:39.324Z,111.40
2018-04-13T13:57:39.436Z,119.60
2018-04-13T13:58:39.272Z,126.20
2018-04-13T13:59:39.446Z,119.80
2018-04-13T14:00:39.362Z,106.60
2018-04-13T14:01:39.564Z,112.60
2018-04-13T14:02:39.223Z,116.90
2018-04-13T14:04:01.118Z,130.60
2018-04-13T14:05:02.402Z,123.90
2018-04-13T14:06:01.324Z,113.00
2018-04-13T14:07:02.941Z,117.50
2018-04-13T14:08:01.976Z,109.50
2018-04-13T14:09:01.775Z,103.00
2018-04-13T14:10:02.045Z,98.10
2018-04-13T14:11:02.460Z,96.50
2018-04-13T14:12:03.223Z,88.20
2018-04-13T14:13:02.367Z,79.10
2018-04-13T14:14:01.331Z,77.60
2018-04-13T14:15:01.715Z,80.10
2018-04-13T14:16:02.747Z,93.60
2018-04-13T14:17:01.911Z,110.90
2018-04-13T14:18:01.740Z,111.70
2018-04-13T14:19:01.469Z,102.10
2018-04-13T14:20:01.783Z,136.00
2018-04-13T14:21:02.094Z,116.40
2018-04-13T14:22:02.336Z,78.90